Time;durP1;ratioP1;P1;durP2;ratioP2;P2;SDS_P1;SDS_P2;PMS_P1;PMS_P2;Temp;Humidity;BMP_temperature;BMP_pressure;BME280_temperature;BME280_humidity;BME280_pressure;Samples;Min_cycle;Max_cycle;Signal;HPM_P1;HPM_P2
2023/08/17 00:02:01;;;;;;;8.63;5.20;;;;;;;22.72;71.39;101178.84;5055758;28;20053;-62
2023/08/17 00:04:29;;;;;;;12.60;5.90;;;;;;;22.62;72.16;101183.16;5055266;28;20053;-65
2023/08/17 00:06:57;;;;;;;8.13;5.55;;;;;;;22.63;72.14;101181.94;5057018;28;20419;-62
2023/08/17 00:09:24;;;;;;;11.38;6.03;;;;;;;22.47;73.06;101177.72;5056731;28;20052;-63
2023/08/17 00:11:51;;;;;;;13.93;5.82;;;;;;;22.51;73.15;101181.38;5055182;28;20045;-64
2023/08/17 00:14:19;;;;;;;9.40;5.78;;;;;;;22.67;72.38;101180.00;5056503;28;20041;-63
2023/08/17 00:16:46;;;;;;;11.80;6.53;;;;;;;22.62;72.66;101182.34;5056525;28;20040;-62
2023/08/17 00:19:13;;;;;;;8.85;6.07;;;;;;;22.45;73.34;101169.69;5055261;28;20049;-63
2023/08/17 00:21:41;;;;;;;11.30;6.40;;;;;;;22.46;73.73;101170.47;5056828;28;20060;-62
2023/08/17 00:24:08;;;;;;;11.18;6.13;;;;;;;22.60;73.14;101181.91;5056222;28;20048;-62
2023/08/17 00:26:36;;;;;;;13.82;6.50;;;;;;;22.40;74.27;101181.25;5055854;28;20056;-62
2023/08/17 00:29:04;;;;;;;13.80;6.72;;;;;;;22.22;74.89;101180.19;5057048;28;20056;-62
2023/08/17 00:31:31;;;;;;;10.13;6.22;;;;;;;22.36;74.32;101174.78;5076576;28;20055;-62
2023/08/17 00:33:58;;;;;;;12.30;6.43;;;;;;;22.60;73.42;101170.66;5062612;28;20045;-62
2023/08/17 00:36:26;;;;;;;10.00;7.15;;;;;;;22.58;73.32;101171.06;5056141;28;20072;-64
2023/08/17 00:38:53;;;;;;;14.52;7.45;;;;;;;22.67;73.12;101179.19;5055040;28;20049;-61
2023/08/17 00:41:21;;;;;;;12.88;7.13;;;;;;;22.42;74.40;101175.25;5054394;28;20409;-64
2023/08/17 00:43:48;;;;;;;13.25;6.93;;;;;;;22.46;74.35;101176.91;5064643;28;20412;-63
2023/08/17 00:46:17;;;;;;;16.98;7.00;;;;;;;22.30;74.82;101179.09;5056030;28;20053;-63
2023/08/17 00:48:44;;;;;;;9.57;6.90;;;;;;;22.33;74.72;101175.56;5054960;28;20060;-63
2023/08/17 00:51:11;;;;;;;9.45;6.53;;;;;;;22.76;73.31;101185.31;5056298;28;20061;-62
2023/08/17 00:53:39;;;;;;;11.38;7.07;;;;;;;22.91;72.26;101184.28;5055593;28;20052;-63
2023/08/17 00:56:07;;;;;;;10.27;6.38;;;;;;;22.85;72.27;101185.81;5054723;28;20049;-63
2023/08/17 00:58:35;;;;;;;14.38;7.60;;;;;;;22.40;74.28;101177.63;5038258;28;20071;-63
2023/08/17 01:01:02;;;;;;;11.95;7.00;;;;;;;22.40;74.84;101172.00;5055862;28;20056;-62
2023/08/17 01:03:31;;;;;;;11.38;6.80;;;;;;;22.44;74.67;101176.47;5034554;28;20046;-61
2023/08/17 01:05:58;;;;;;;11.63;7.32;;;;;;;22.51;74.34;101175.78;5035682;28;20115;-62
2023/08/17 01:08:26;;;;;;;11.32;7.15;;;;;;;22.55;74.10;101179.44;5034618;28;20072;-62
2023/08/17 01:11:25;;;;;;;11.65;7.75;;;;;;;22.14;76.02;101170.88;5035810;28;20049;-62
2023/08/17 01:14:05;;;;;;;11.40;7.88;;;;;;;22.21;75.90;101165.34;5032819;28;20076;-62
2023/08/17 01:16:42;;;;;;;11.50;7.33;;;;;;;22.17;76.16;101170.13;5034379;28;20076;-63
2023/08/17 01:19:12;;;;;;;11.95;7.80;;;;;;;22.39;75.37;101164.78;5018396;28;20063;-63
2023/08/17 01:21:49;;;;;;;11.70;7.63;;;;;;;22.51;74.78;101167.34;5048927;28;20045;-63
2023/08/17 01:24:16;;;;;;;11.57;8.10;;;;;;;22.51;74.52;101172.97;5055205;28;20519;-62
2023/08/17 01:26:44;;;;;;;12.30;9.15;;;;;;;22.56;74.19;101170.63;5055233;28;20051;-62
2023/08/17 01:29:13;;;;;;;14.10;8.30;;;;;;;22.30;75.58;101165.06;5055912;28;20060;-62
2023/08/17 01:32:14;;;;;;;11.10;7.47;;;;;;;22.47;74.96;101158.88;5041949;28;20503;-62
2023/08/17 01:34:57;;;;;;;13.43;8.18;;;;;;;22.20;75.92;101163.75;5072028;28;20064;-62
2023/08/17 01:37:28;;;;;;;14.48;9.15;;;;;;;22.05;76.73;101153.53;5051421;28;20048;-62
2023/08/17 01:39:56;;;;;;;16.65;8.63;;;;;;;22.15;76.59;101154.84;5053464;28;20060;-62
2023/08/17 01:42:24;;;;;;;13.02;7.60;;;;;;;22.24;75.71;101163.78;5061862;28;20052;-61
2023/08/17 01:44:52;;;;;;;16.73;11.68;;;;;;;22.37;75.51;101159.53;5057968;28;20052;-62
2023/08/17 01:47:22;;;;;;;11.23;7.88;;;;;;;22.40;75.01;101161.59;5054834;28;20041;-62
2023/08/17 01:49:50;;;;;;;14.10;8.32;;;;;;;22.10;75.96;101169.22;5055060;28;20057;-63
2023/08/17 01:52:18;;;;;;;11.55;7.70;;;;;;;22.29;75.59;101163.47;5053989;28;20060;-64
2023/08/17 01:54:45;;;;;;;13.57;7.75;;;;;;;22.45;74.69;101161.25;5053357;28;20049;-62
2023/08/17 01:57:13;;;;;;;15.70;8.55;;;;;;;22.40;74.95;101172.00;5053101;28;20045;-62
2023/08/17 01:59:40;;;;;;;12.68;8.70;;;;;;;22.52;74.59;101169.78;5054885;28;20057;-63
2023/08/17 02:02:08;;;;;;;16.17;8.13;;;;;;;22.70;74.04;101167.19;5053636;28;20048;-62
2023/08/17 02:04:35;;;;;;;20.08;9.55;;;;;;;21.97;76.54;101165.00;5037709;28;20052;-63
2023/08/17 02:07:03;;;;;;;12.50;8.25;;;;;;;21.91;76.91;101175.78;5033502;28;20704;-63
2023/08/17 02:09:30;;;;;;;12.73;7.82;;;;;;;21.86;77.47;101178.88;5016466;28;20045;-63
2023/08/17 02:11:58;;;;;;;12.68;8.20;;;;;;;22.05;76.69;101181.59;5034726;28;20065;-63
2023/08/17 02:14:25;;;;;;;15.05;8.82;;;;;;;21.80;77.33;101183.22;5032953;28;20045;-63
2023/08/17 02:16:53;;;;;;;14.18;9.23;;;;;;;21.68;78.12;101182.59;5034813;28;20575;-63
2023/08/17 02:19:20;;;;;;;13.15;8.85;;;;;;;21.92;77.32;101179.38;5033083;28;20046;-63
2023/08/17 02:21:48;;;;;;;14.13;8.45;;;;;;;22.08;76.49;101180.00;5032124;28;20049;-63
2023/08/17 02:24:16;;;;;;;15.55;9.45;;;;;;;21.42;79.63;101186.19;5053784;28;20049;-62
2023/08/17 02:26:43;;;;;;;15.05;10.18;;;;;;;21.26;81.25;101191.09;5053844;28;20246;-64
2023/08/17 02:29:10;;;;;;;15.35;9.55;;;;;;;21.29;81.62;101179.13;5051808;28;20041;-63
2023/08/17 02:31:38;;;;;;;11.90;9.80;;;;;;;21.33;81.31;101196.00;5074358;28;20663;-63
2023/08/17 02:34:05;;;;;;;15.98;9.27;;;;;;;21.40;81.44;101188.53;5057931;28;20377;-64
2023/08/17 02:36:33;;;;;;;16.23;9.73;;;;;;;21.48;80.87;101189.50;5057260;28;20053;-63
2023/08/17 02:39:03;;;;;;;14.32;9.40;;;;;;;21.67;79.28;101192.97;5052848;28;20048;-64
2023/08/17 02:41:31;;;;;;;16.45;10.70;;;;;;;21.24;82.21;101187.88;5052599;28;20056;-62
2023/08/17 02:44:00;;;;;;;14.13;9.93;;;;;;;21.14;83.17;101183.72;5035870;28;20056;-62
2023/08/17 02:46:27;;;;;;;14.60;10.30;;;;;;;21.40;82.16;101193.34;5036269;28;20052;-63
2023/08/17 02:48:55;;;;;;;16.80;9.90;;;;;;;21.21;82.30;101192.25;5052413;28;20045;-63
2023/08/17 02:51:23;;;;;;;18.35;11.35;;;;;;;21.15;82.41;101181.69;5052110;28;20064;-62
2023/08/17 02:53:50;;;;;;;14.68;10.18;;;;;;;21.34;82.71;101183.63;5053640;28;20049;-63
2023/08/17 02:56:18;;;;;;;15.40;10.30;;;;;;;21.12;82.98;101190.84;5053418;28;20384;-62
2023/08/17 02:58:47;;;;;;;15.30;10.70;;;;;;;21.18;83.14;101200.59;5052636;28;20057;-62
2023/08/17 03:01:16;;;;;;;17.75;10.73;;;;;;;21.08;83.89;101192.78;5054006;28;20056;-63
2023/08/17 03:03:43;;;;;;;13.98;10.48;;;;;;;21.18;83.80;101201.38;5053490;28;20044;-63
2023/08/17 03:06:11;;;;;;;17.30;11.05;;;;;;;21.45;81.79;101195.81;5051831;28;20664;-63
2023/08/17 03:08:39;;;;;;;13.88;10.40;;;;;;;21.41;82.22;101198.56;5053828;28;20515;-63
2023/08/17 03:11:07;;;;;;;16.85;10.45;;;;;;;21.33;82.15;101191.22;5053511;28;20049;-62
2023/08/17 03:13:34;;;;;;;19.50;11.20;;;;;;;21.16;83.63;101192.56;5052377;28;20053;-63
2023/08/17 03:16:02;;;;;;;13.63;10.07;;;;;;;21.18;83.52;101183.78;5051520;28;20049;-63
2023/08/17 03:18:30;;;;;;;14.73;10.60;;;;;;;21.02;84.07;101185.88;5052384;28;20052;-63
2023/08/17 03:20:57;;;;;;;14.13;10.43;;;;;;;21.06;84.35;101178.34;5053569;28;20052;-63
2023/08/17 03:23:25;;;;;;;15.95;10.73;;;;;;;21.13;83.88;101176.47;5055042;28;20415;-62
2023/08/17 03:25:53;;;;;;;17.00;10.68;;;;;;;21.27;83.74;101185.13;5052348;28;20056;-63
2023/08/17 03:28:20;;;;;;;14.30;10.88;;;;;;;21.13;83.48;101184.88;5052988;28;20530;-62
2023/08/17 03:30:48;;;;;;;14.70;10.85;;;;;;;21.00;84.85;101182.63;5054634;28;20050;-63
2023/08/17 03:33:15;;;;;;;19.95;12.43;;;;;;;21.05;84.73;101177.53;5036331;28;20504;-62
2023/08/17 03:35:43;;;;;;;15.70;12.48;;;;;;;21.15;83.90;101176.09;5055629;28;20448;-62
2023/08/17 03:38:11;;;;;;;17.45;11.70;;;;;;;21.16;84.11;101177.72;5055942;28;20049;-62
2023/08/17 03:40:38;;;;;;;17.35;12.85;;;;;;;21.03;84.30;101181.88;5056707;28;20160;-62
2023/08/17 03:43:06;;;;;;;20.02;13.85;;;;;;;20.79;86.72;101182.19;5057580;28;20397;-61
2023/08/17 03:45:33;;;;;;;19.27;13.32;;;;;;;20.67;87.21;101185.97;5056981;28;20045;-63
2023/08/17 03:48:01;;;;;;;19.60;12.18;;;;;;;21.19;85.30;101176.97;5046374;28;20060;-68
2023/08/17 03:50:28;;;;;;;20.42;13.70;;;;;;;20.92;85.60;101175.25;5057151;28;20052;-65
2023/08/17 03:52:56;;;;;;;16.80;12.63;;;;;;;21.13;84.66;101179.28;5057755;28;20071;-63
2023/08/17 03:55:23;;;;;;;16.80;12.50;;;;;;;21.05;84.94;101173.91;5055088;28;20048;-62
2023/08/17 03:57:51;;;;;;;24.45;14.50;;;;;;;20.85;86.16;101175.91;5039101;28;20428;-63
2023/08/17 04:00:18;;;;;;;15.23;13.50;;;;;;;21.03;85.63;101171.50;5054947;28;20064;-63
2023/08/17 04:02:46;;;;;;;19.75;13.50;;;;;;;20.74;86.80;101179.69;5057194;28;20048;-62
2023/08/17 04:05:19;;;;;;;20.77;14.20;;;;;;;20.41;88.88;101174.66;5039743;28;20052;-62
2023/08/17 04:07:48;;;;;;;18.67;12.98;;;;;;;20.61;87.83;101169.84;5056924;28;20052;-63
2023/08/17 04:10:15;;;;;;;17.77;13.27;;;;;;;20.82;86.52;101173.88;5038714;28;20053;-62
2023/08/17 04:12:43;;;;;;;17.30;13.55;;;;;;;20.65;87.42;101179.94;5056223;28;20064;-62
2023/08/17 04:15:11;;;;;;;19.38;13.77;;;;;;;20.66;88.22;101175.16;5038945;28;20488;-62
2023/08/17 04:17:38;;;;;;;18.10;13.38;;;;;;;20.76;87.78;101174.53;5055399;28;20045;-63
2023/08/17 04:20:07;;;;;;;19.30;13.73;;;;;;;20.89;86.19;101173.19;5039346;28;20056;-62
2023/08/17 04:22:35;;;;;;;19.67;15.07;;;;;;;20.80;86.62;101169.84;5022653;28;20057;-63
2023/08/17 04:25:04;;;;;;;20.63;15.15;;;;;;;20.55;88.10;101174.13;5053842;28;20052;-63
2023/08/17 04:27:31;;;;;;;22.63;13.60;;;;;;;20.74;87.91;101169.31;5055242;28;20057;-63
2023/08/17 04:30:00;;;;;;;21.23;14.48;;;;;;;20.69;88.13;101172.44;5062828;28;20407;-61
2023/08/17 04:32:33;;;;;;;21.10;14.65;;;;;;;20.63;88.75;101178.69;5075179;28;20761;-61
2023/08/17 04:35:01;;;;;;;23.65;15.27;;;;;;;20.66;88.13;101178.75;5069108;28;20056;-63
2023/08/17 04:37:28;;;;;;;21.55;15.77;;;;;;;20.70;87.77;101173.22;5054827;28;20053;-64
2023/08/17 04:39:56;;;;;;;20.00;15.50;;;;;;;20.44;89.41;101171.13;5038449;28;20064;-63
2023/08/17 04:42:24;;;;;;;21.95;15.90;;;;;;;20.23;90.93;101165.06;5044493;28;20788;-63
2023/08/17 04:44:52;;;;;;;21.50;14.90;;;;;;;20.49;89.65;101172.78;5049763;28;20041;-63
2023/08/17 04:47:20;;;;;;;21.52;15.85;;;;;;;20.43;90.15;101171.47;5049415;28;20049;-64
2023/08/17 04:49:48;;;;;;;25.60;16.83;;;;;;;20.31;91.30;101177.22;5055259;28;20057;-64
2023/08/17 04:52:15;;;;;;;21.15;15.27;;;;;;;20.48;90.61;101179.59;5055533;28;20056;-63
2023/08/17 04:54:46;;;;;;;21.88;16.05;;;;;;;20.43;90.58;101180.69;5056202;28;20041;-63
2023/08/17 04:57:13;;;;;;;22.20;16.90;;;;;;;20.34;91.32;101190.47;5055738;28;20053;-63
2023/08/17 04:59:42;;;;;;;26.08;15.80;;;;;;;20.64;90.07;101185.91;5055849;28;20045;-63
2023/08/17 05:02:10;;;;;;;28.95;16.17;;;;;;;20.88;88.44;101182.78;5055024;28;20053;-63
2023/08/17 05:04:39;;;;;;;23.90;17.33;;;;;;;20.81;87.63;101177.03;5054492;28;20052;-62
2023/08/17 05:07:13;;;;;;;25.13;16.70;;;;;;;20.60;89.67;101182.22;5054919;28;20072;-65
2023/08/17 05:09:41;;;;;;;20.58;16.92;;;;;;;20.57;90.03;101177.38;5054525;28;20052;-66
2023/08/17 05:12:09;;;;;;;24.85;17.50;;;;;;;20.76;88.83;101180.16;5055731;28;20053;-62
2023/08/17 05:14:37;;;;;;;21.23;16.75;;;;;;;20.59;88.91;101178.59;5054339;28;20044;-63
2023/08/17 05:17:05;;;;;;;24.35;18.20;;;;;;;20.42;91.40;101173.47;5054625;28;20057;-63
2023/08/17 05:19:33;;;;;;;33.92;16.17;;;;;;;20.70;89.76;101179.63;5055881;28;20140;-64
2023/08/17 05:22:00;;;;;;;25.27;16.60;;;;;;;20.67;89.61;101168.38;5054264;28;20062;-65
2023/08/17 05:24:28;;;;;;;21.83;17.33;;;;;;;20.89;88.06;101162.78;5062931;28;20045;-62
2023/08/17 05:26:56;;;;;;;30.83;16.15;;;;;;;20.66;89.27;101167.53;5017225;28;20045;-63
2023/08/17 05:29:23;;;;;;;24.15;16.08;;;;;;;21.04;87.57;101161.09;5057715;28;20047;-67
2023/08/17 05:32:00;;;;;;;22.00;15.00;;;;;;;21.27;86.28;101166.72;5076306;28;20056;-63
2023/08/17 05:34:31;;;;;;;29.95;16.75;;;;;;;21.34;85.13;101164.03;5071862;28;20392;-62
2023/08/17 05:37:02;;;;;;;25.42;16.83;;;;;;;21.35;84.90;101160.84;5054279;28;20045;-63
2023/08/17 05:39:30;;;;;;;23.13;16.88;;;;;;;21.43;84.36;101162.56;5055191;28;20049;-64
2023/08/17 05:41:59;;;;;;;26.63;17.90;;;;;;;21.37;84.64;101158.47;5053706;28;20057;-63
2023/08/17 05:44:27;;;;;;;24.83;17.98;;;;;;;20.73;88.21;101155.69;5054842;28;20491;-63
2023/08/17 05:46:54;;;;;;;29.75;18.42;;;;;;;20.55;90.21;101149.75;5053799;28;20052;-63
2023/08/17 05:49:25;;;;;;;31.08;18.15;;;;;;;20.76;90.02;101160.56;5054966;28;20056;-62
2023/08/17 05:51:53;;;;;;;27.75;19.75;;;;;;;20.68;89.14;101151.19;5054719;28;20052;-63
2023/08/17 05:54:20;;;;;;;28.75;18.65;;;;;;;20.91;88.79;101154.84;5040475;28;20041;-65
2023/08/17 05:56:48;;;;;;;28.30;18.58;;;;;;;20.93;87.81;101149.69;5034338;28;20072;-63
2023/08/17 05:59:15;;;;;;;26.88;20.65;;;;;;;20.99;87.88;101153.00;5034955;28;20050;-63
2023/08/17 06:01:43;;;;;;;31.92;21.25;;;;;;;20.33;92.26;101158.88;5034968;28;20045;-63
2023/08/17 06:04:12;;;;;;;31.13;19.92;;;;;;;20.66;91.00;101152.75;5033623;28;20057;-63
2023/08/17 06:06:40;;;;;;;25.85;19.75;;;;;;;20.68;90.82;101148.41;5034439;28;20037;-63
2023/08/17 06:09:08;;;;;;;30.27;19.42;;;;;;;20.77;90.08;101157.38;5033956;28;20053;-65
2023/08/17 06:11:36;;;;;;;35.88;22.27;;;;;;;20.51;91.20;101143.28;5043949;28;20062;-63
2023/08/17 06:14:04;;;;;;;29.67;20.75;;;;;;;20.52;91.67;101144.09;5034791;28;20057;-63
2023/08/17 06:16:31;;;;;;;25.35;18.95;;;;;;;20.74;90.00;101146.94;5034501;28;20069;-66
2023/08/17 06:18:59;;;;;;;30.90;20.58;;;;;;;20.45;91.08;101155.13;5048924;28;20053;-63
2023/08/17 06:21:27;;;;;;;26.75;20.45;;;;;;;20.40;92.01;101147.84;5054398;28;20542;-63
2023/08/17 06:23:54;;;;;;;29.75;20.42;;;;;;;20.36;92.37;101160.97;5054735;28;20044;-63
2023/08/17 06:26:22;;;;;;;32.85;20.95;;;;;;;20.42;92.63;101153.88;5053969;28;20041;-63
2023/08/17 06:28:50;;;;;;;32.03;20.15;;;;;;;20.65;90.71;101159.53;5054052;28;20055;-63
2023/08/17 06:31:17;;;;;;;32.28;23.50;;;;;;;20.39;92.30;101163.00;5073573;28;20048;-63
2023/08/17 06:33:45;;;;;;;37.05;24.10;;;;;;;20.12;93.50;101164.81;5074251;28;20059;-64
2023/08/17 06:36:16;;;;;;;33.30;24.65;;;;;;;20.17;94.01;101155.38;5057305;28;20052;-63
2023/08/17 06:38:44;;;;;;;33.00;23.42;;;;;;;20.27;94.28;101151.16;5054056;28;20045;-63
2023/08/17 06:41:11;;;;;;;35.00;23.73;;;;;;;20.33;93.74;101152.50;5065933;28;20060;-65
2023/08/17 06:43:39;;;;;;;34.08;25.23;;;;;;;20.35;93.04;101150.13;5065687;28;20041;-63
2023/08/17 06:46:09;;;;;;;33.38;23.05;;;;;;;20.45;92.71;101143.94;5053696;28;20420;-65
2023/08/17 06:48:37;;;;;;;31.02;23.10;;;;;;;20.60;92.03;101141.06;5053744;28;20059;-63
2023/08/17 06:51:05;;;;;;;32.83;23.10;;;;;;;20.78;90.19;101135.78;5053799;28;20048;-62
2023/08/17 06:53:32;;;;;;;35.35;21.73;;;;;;;20.86;90.13;101132.75;5054120;28;20060;-64
2023/08/17 06:56:00;;;;;;;29.95;20.73;;;;;;;21.00;88.73;101132.22;5052598;28;20044;-63
2023/08/17 06:58:29;;;;;;;30.33;21.83;;;;;;;21.02;88.07;101132.66;5034126;28;20045;-63
2023/08/17 07:00:56;;;;;;;36.58;23.85;;;;;;;21.08;87.15;101137.56;5033776;28;20062;-63
2023/08/17 07:03:24;;;;;;;35.13;25.58;;;;;;;20.62;90.85;101141.50;5033942;28;20037;-64
2023/08/17 07:05:51;;;;;;;36.05;24.65;;;;;;;20.81;90.26;101140.63;5033677;28;20045;-64
2023/08/17 07:08:19;;;;;;;31.23;23.55;;;;;;;20.86;89.50;101131.94;5046529;28;20493;-62
2023/08/17 07:10:46;;;;;;;31.88;23.50;;;;;;;21.15;88.44;101143.28;5033662;28;20049;-63
2023/08/17 07:13:14;;;;;;;37.33;23.70;;;;;;;20.98;88.72;101131.75;5032640;28;20045;-62
2023/08/17 07:15:41;;;;;;;33.20;24.95;;;;;;;21.07;88.65;101135.13;5051386;28;20045;-63
2023/08/17 07:18:08;;;;;;;35.25;25.15;;;;;;;21.17;87.91;101137.31;5053181;28;20041;-62
2023/08/17 07:20:36;;;;;;;37.53;25.58;;;;;;;21.13;88.32;101133.66;5053522;28;20053;-63
2023/08/17 07:23:04;;;;;;;35.08;23.05;;;;;;;21.31;87.96;101128.31;5052116;28;20049;-61
2023/08/17 07:25:32;;;;;;;33.22;25.02;;;;;;;21.50;85.59;101131.03;5032837;28;20049;-64
2023/08/17 07:28:00;;;;;;;35.42;21.52;;;;;;;21.70;85.06;101132.56;5049358;28;20056;-61
2023/08/17 07:30:27;;;;;;;32.80;24.25;;;;;;;21.73;84.67;101127.00;5065613;28;20510;-63
2023/08/17 07:32:54;;;;;;;36.17;23.50;;;;;;;21.70;83.83;101136.16;5073521;28;20049;-62
2023/08/17 07:35:22;;;;;;;30.52;23.08;;;;;;;21.71;84.85;101120.94;5064652;28;20056;-64
2023/08/17 07:37:49;;;;;;;39.08;25.30;;;;;;;21.88;84.05;101128.03;5052911;28;20053;-63
2023/08/17 07:40:34;;;;;;;37.90;22.52;;;;;;;21.87;83.97;101126.41;5051991;28;20567;-63
2023/08/17 07:43:02;;;;;;;36.67;25.63;;;;;;;21.73;84.50;101124.19;5053014;28;20069;-62
2023/08/17 07:45:32;;;;;;;34.22;24.38;;;;;;;21.75;83.96;101130.22;5052001;28;20044;-62
2023/08/17 07:47:59;;;;;;;35.60;23.83;;;;;;;21.91;83.26;101128.09;5052814;28;20064;-62
2023/08/17 07:50:26;;;;;;;40.75;22.80;;;;;;;22.19;82.32;101136.84;5053176;28;20041;-63
2023/08/17 07:52:54;;;;;;;29.20;21.73;;;;;;;22.50;80.79;101137.63;5053081;28;20045;-62
2023/08/17 07:55:21;;;;;;;33.70;25.77;;;;;;;22.55;79.59;101140.13;5053111;28;20496;-63
2023/08/17 07:57:48;;;;;;;31.77;22.77;;;;;;;22.29;80.49;101141.81;5052526;28;20503;-62
2023/08/17 08:00:16;;;;;;;37.88;24.92;;;;;;;22.22;80.28;101143.72;5052940;28;20049;-63
2023/08/17 08:02:44;;;;;;;40.22;24.23;;;;;;;22.24;80.47;101146.97;5053243;28;20061;-63
2023/08/17 08:05:13;;;;;;;32.35;22.38;;;;;;;22.28;80.29;101154.22;5053138;28;20065;-63
2023/08/17 08:07:42;;;;;;;34.55;22.48;;;;;;;22.35;80.12;101147.91;5053132;28;20056;-63
2023/08/17 08:10:09;;;;;;;31.35;23.20;;;;;;;22.47;78.83;101146.84;5051977;28;20045;-63
2023/08/17 08:12:37;;;;;;;33.92;23.52;;;;;;;22.65;77.95;101145.09;5052656;28;20053;-63
2023/08/17 08:15:05;;;;;;;29.00;22.48;;;;;;;22.52;78.55;101147.31;5052849;28;20056;-62
2023/08/17 08:17:32;;;;;;;35.72;22.08;;;;;;;22.59;78.58;101141.81;5052925;28;20056;-63
2023/08/17 08:19:59;;;;;;;29.42;21.33;;;;;;;22.54;78.43;101138.50;5056142;28;20063;-63
2023/08/17 08:22:27;;;;;;;29.73;21.65;;;;;;;22.61;78.13;101139.44;5056452;28;20052;-62
2023/08/17 08:24:54;;;;;;;29.00;20.98;;;;;;;22.64;78.12;101141.47;5056324;28;20049;-63
2023/08/17 08:27:22;;;;;;;33.55;24.52;;;;;;;22.86;76.99;101139.66;5050630;28;20048;-62
2023/08/17 08:29:49;;;;;;;29.67;21.35;;;;;;;22.97;76.27;101137.78;5050186;28;20499;-62
2023/08/17 08:32:16;;;;;;;27.15;20.92;;;;;;;22.96;76.74;101136.97;5076510;28;20060;-62
2023/08/17 08:34:44;;;;;;;28.17;20.98;;;;;;;23.17;75.16;101136.38;5072789;28;20041;-62
2023/08/17 08:37:12;;;;;;;28.27;20.20;;;;;;;22.96;76.01;101139.75;5055174;28;20053;-63
2023/08/17 08:39:53;;;;;;;28.58;19.80;;;;;;;22.93;75.54;101134.09;5056346;28;20041;-63
2023/08/17 08:42:22;;;;;;;26.50;19.48;;;;;;;23.04;74.94;101132.22;5051313;28;20054;-64
2023/08/17 08:44:49;;;;;;;30.52;20.08;;;;;;;23.18;74.44;101135.16;5051119;28;20448;-64
2023/08/17 08:47:17;;;;;;;31.15;19.45;;;;;;;23.32;74.33;101129.69;5056296;28;20049;-64
2023/08/17 08:50:01;;;;;;;25.77;18.40;;;;;;;23.53;72.73;101135.47;5056441;28;20056;-63
2023/08/17 08:52:36;;;;;;;27.75;18.63;;;;;;;23.45;72.61;101136.59;5034588;28;20416;-63
2023/08/17 08:55:11;;;;;;;26.75;19.05;;;;;;;23.27;73.10;101135.63;5034435;28;20061;-64
2023/08/17 08:57:39;;;;;;;28.35;18.45;;;;;;;23.53;72.73;101137.47;5035987;28;20053;-63
2023/08/17 09:00:07;;;;;;;30.10;19.20;;;;;;;23.50;72.10;101141.06;5043285;28;20182;-63
2023/08/17 09:02:35;;;;;;;30.23;19.52;;;;;;;23.60;72.52;101134.72;5035776;28;20053;-62
2023/08/17 09:05:04;;;;;;;28.50;19.42;;;;;;;23.74;71.72;101132.00;5035646;28;20056;-64
2023/08/17 09:07:35;;;;;;;22.77;17.63;;;;;;;23.83;71.64;101129.66;5046861;28;20048;-62
2023/08/17 09:10:03;;;;;;;22.23;17.65;;;;;;;23.95;71.30;101134.94;5055258;28;20546;-62
2023/08/17 09:12:31;;;;;;;23.38;18.48;;;;;;;23.75;71.68;101133.59;5055444;28;20055;-63
2023/08/17 09:15:07;;;;;;;25.20;17.25;;;;;;;23.81;70.18;101120.78;5055428;28;20075;-63
2023/08/17 09:17:35;;;;;;;23.15;15.98;;;;;;;23.71;70.74;101116.69;5055375;28;20041;-62
2023/08/17 09:20:03;;;;;;;26.67;16.60;;;;;;;23.84;70.63;101122.81;5053053;28;20052;-62
2023/08/17 09:22:42;;;;;;;29.95;16.50;;;;;;;24.09;69.56;101120.97;5034128;28;20057;-63
2023/08/17 09:25:10;;;;;;;23.48;15.55;;;;;;;24.20;69.55;101111.34;5060711;28;20068;-64
2023/08/17 09:27:38;;;;;;;23.48;15.27;;;;;;;24.26;69.25;101109.78;5055471;28;20056;-63
2023/08/17 09:30:08;;;;;;;21.60;15.07;;;;;;;24.35;68.58;101107.41;5062985;28;20056;-63
2023/08/17 09:32:35;;;;;;;21.17;15.90;;;;;;;24.49;68.03;101107.47;5075141;28;20579;-61
2023/08/17 09:35:06;;;;;;;24.73;13.90;;;;;;;24.53;67.22;101102.63;5069458;28;20067;-62
2023/08/17 09:37:34;;;;;;;19.98;14.88;;;;;;;24.46;67.62;101099.00;5055217;28;20541;-62
2023/08/17 09:40:02;;;;;;;21.67;15.90;;;;;;;24.28;68.77;101104.56;5054486;28;20053;-63
2023/08/17 09:42:34;;;;;;;20.13;14.65;;;;;;;24.49;67.90;101101.81;5054672;28;20061;-62
2023/08/17 09:45:02;;;;;;;17.75;13.30;;;;;;;24.32;66.63;101098.94;5054678;28;20064;-62
2023/08/17 09:47:30;;;;;;;17.92;12.63;;;;;;;24.51;65.84;101098.59;5054778;28;20692;-62
2023/08/17 09:49:57;;;;;;;15.50;11.30;;;;;;;24.83;63.61;101095.84;5055014;28;20060;-62
2023/08/17 09:52:25;;;;;;;20.42;11.20;;;;;;;24.97;62.96;101090.22;5054647;28;20048;-63
2023/08/17 09:54:56;;;;;;;18.70;11.98;;;;;;;24.98;62.80;101092.69;5054489;28;20052;-63
2023/08/17 09:57:25;;;;;;;20.05;12.73;;;;;;;24.63;64.67;101098.22;5035285;28;20037;-63
2023/08/17 09:59:54;;;;;;;15.70;11.48;;;;;;;24.63;64.09;101084.13;5033493;28;20390;-62
2023/08/17 10:02:23;;;;;;;14.93;11.25;;;;;;;24.65;62.29;101083.75;5035599;28;20501;-65
2023/08/17 10:04:53;;;;;;;15.23;10.73;;;;;;;24.67;61.82;101084.16;5053223;28;20040;-63
2023/08/17 10:07:24;;;;;;;15.07;9.68;;;;;;;24.41;62.13;101088.09;5054482;28;20361;-62
2023/08/17 10:10:02;;;;;;;15.48;10.30;;;;;;;24.39;62.23;101090.53;5053202;28;20064;-63
2023/08/17 10:12:45;;;;;;;15.90;11.80;;;;;;;24.31;62.47;101092.50;5048474;28;20584;-62
2023/08/17 10:15:15;;;;;;;15.23;10.77;;;;;;;24.28;62.80;101086.84;5034600;28;20045;-63
2023/08/17 10:17:57;;;;;;;16.63;10.23;;;;;;;24.40;62.37;101078.03;5033239;28;20052;-62
2023/08/17 10:20:26;;;;;;;19.73;10.73;;;;;;;24.51;62.53;101068.41;5038263;28;20044;-63
2023/08/17 10:23:20;;;;;;;18.73;12.48;;;;;;;24.60;62.96;101070.06;5052837;28;20041;-62
2023/08/17 10:25:48;;;;;;;18.13;13.05;;;;;;;24.76;61.24;101070.50;5048844;28;20060;-62
2023/08/17 10:28:18;;;;;;;15.40;10.50;;;;;;;24.77;61.65;101074.94;5052587;28;20637;-62
2023/08/17 10:30:45;;;;;;;14.05;10.18;;;;;;;24.67;60.73;101070.84;5056560;28;20049;-64
2023/08/17 10:33:13;;;;;;;15.75;10.60;;;;;;;24.64;61.00;101060.38;5053885;28;20056;-62
2023/08/17 10:35:41;;;;;;;17.30;10.93;;;;;;;24.68;60.82;101055.56;5051980;28;20048;-63
2023/08/17 10:38:08;;;;;;;18.88;9.02;;;;;;;24.71;59.19;101062.44;5052834;28;20049;-64
2023/08/17 10:40:41;;;;;;;12.85;8.25;;;;;;;24.66;57.65;101059.97;5033760;28;20045;-63
2023/08/17 10:43:08;;;;;;;13.73;8.68;;;;;;;24.70;57.65;101060.84;5036629;28;20068;-65
2023/08/17 10:45:38;;;;;;;13.15;8.65;;;;;;;24.86;57.62;101059.22;5052862;28;20060;-63
2023/08/17 10:48:09;;;;;;;13.98;10.23;;;;;;;24.96;57.17;101058.44;5053854;28;20054;-63
2023/08/17 10:50:37;;;;;;;14.93;8.20;;;;;;;24.94;56.09;101049.56;5053746;28;20055;-64
2023/08/17 10:53:11;;;;;;;13.02;8.50;;;;;;;25.07;56.66;101056.41;5053440;28;20048;-62
2023/08/17 10:55:41;;;;;;;10.82;8.13;;;;;;;25.21;54.74;101053.56;5052324;28;20061;-65
2023/08/17 10:58:08;;;;;;;10.98;7.32;;;;;;;25.22;53.47;101057.22;5052388;28;20542;-63
2023/08/17 11:00:45;;;;;;;10.77;7.38;;;;;;;25.17;53.52;101051.97;5053423;28;20059;-64
2023/08/17 11:03:20;;;;;;;11.10;7.53;;;;;;;25.20;53.26;101045.53;5053342;28;20063;-62
2023/08/17 11:05:56;;;;;;;9.50;7.07;;;;;;;25.32;52.59;101047.94;5053782;28;20056;-64
2023/08/17 11:08:51;;;;;;;11.40;6.70;;;;;;;25.43;51.47;101057.22;5053634;28;20060;-65
2023/08/17 11:11:20;;;;;;;10.82;6.00;;;;;;;25.51;49.40;101051.16;5053751;28;20056;-63
2023/08/17 11:13:48;;;;;;;16.42;13.13;;;;;;;25.56;48.89;101044.28;5053131;28;20048;-62
2023/08/17 11:16:19;;;;;;;12.55;6.97;;;;;;;25.68;48.33;101043.06;5053528;28;20057;-63
2023/08/17 11:18:47;;;;;;;12.05;5.90;;;;;;;25.76;47.54;101045.44;5053378;28;20045;-62
2023/08/17 11:21:17;;;;;;;9.77;5.68;;;;;;;25.62;47.09;101042.66;5053182;28;20056;-62